Warner, Canada
Current Conditions -  °F | °C
As of 10:00 PM on Saturday 20 Dec 2014 (Local Time) from CYQL Reporting Station
Broken Clouds Broken Clouds  
Wind Chill: 15°   Ceiling: 25000
Heat Index: 28°   Visibility: 15mi
Dew Point: 25°   Wind: 20mph
Humidity: 86%   Direction: 190°S
Pressure: 29.45"   Gusts: NA
Location:  49.28°N, 112.2°W
Report Text: CYQL 210500Z 19017KT 15SM BKN250 M02/M04 A2945 RMK CI5 LAST STFD OBS/NXT 211300Z SLP004
Loading
Personal Weather Stations






























Interactive Weather Map New forecast layout! Learn more

10-Day Weather Forecast

Advertisements
Track Severe Weather on mobile